sensor_id;sensor_type;location;lat;lon;timestamp;pressure;altitude;pressure_sealevel;temperature;humidity
21742;BME280;11033;47.490;11.116;2022-10-18T00:00:43;94154.03;;;11.60;69.67
21742;BME280;11033;47.490;11.116;2022-10-18T00:03:09;94153.06;;;11.61;70.32
21742;BME280;11033;47.490;11.116;2022-10-18T00:05:34;94153.41;;;11.58;70.37
21742;BME280;11033;47.490;11.116;2022-10-18T00:07:59;94154.41;;;11.49;69.46
21742;BME280;11033;47.490;11.116;2022-10-18T00:10:25;94145.56;;;11.33;72.36
21742;BME280;11033;47.490;11.116;2022-10-18T00:12:51;94157.06;;;11.49;70.45
21742;BME280;11033;47.490;11.116;2022-10-18T00:15:16;94158.50;;;11.59;68.27
21742;BME280;11033;47.490;11.116;2022-10-18T00:17:42;94164.78;;;11.58;70.05
21742;BME280;11033;47.490;11.116;2022-10-18T00:20:08;94160.97;;;11.61;68.52
21742;BME280;11033;47.490;11.116;2022-10-18T00:22:36;94156.69;;;11.60;70.40
21742;BME280;11033;47.490;11.116;2022-10-18T00:25:03;94161.63;;;11.63;70.14
21742;BME280;11033;47.490;11.116;2022-10-18T00:27:29;94147.00;;;11.44;71.58
21742;BME280;11033;47.490;11.116;2022-10-18T00:29:55;94160.69;;;11.48;70.32
21742;BME280;11033;47.490;11.116;2022-10-18T00:32:20;94157.72;;;11.51;69.89
21742;BME280;11033;47.490;11.116;2022-10-18T00:34:46;94159.38;;;11.43;71.33
21742;BME280;11033;47.490;11.116;2022-10-18T00:37:11;94154.13;;;11.35;70.79
21742;BME280;11033;47.490;11.116;2022-10-18T00:39:37;94159.56;;;11.42;69.56
21742;BME280;11033;47.490;11.116;2022-10-18T00:42:02;94151.44;;;11.52;68.03
21742;BME280;11033;47.490;11.116;2022-10-18T00:46:59;94156.75;;;11.43;69.73
21742;BME280;11033;47.490;11.116;2022-10-18T00:52:15;94146.22;;;11.35;70.49
21742;BME280;11033;47.490;11.116;2022-10-18T00:54:43;94154.47;;;11.32;70.02
21742;BME280;11033;47.490;11.116;2022-10-18T00:57:10;94148.38;;;11.32;70.07
21742;BME280;11033;47.490;11.116;2022-10-18T00:59:37;94160.09;;;11.29;70.30
21742;BME280;11033;47.490;11.116;2022-10-18T01:02:03;94161.06;;;11.36;68.49
21742;BME280;11033;47.490;11.116;2022-10-18T01:04:29;94155.16;;;11.26;70.15
21742;BME280;11033;47.490;11.116;2022-10-18T01:10:31;94154.47;;;11.32;69.06
21742;BME280;11033;47.490;11.116;2022-10-18T01:13:23;94156.47;;;11.30;69.58
21742;BME280;11033;47.490;11.116;2022-10-18T01:15:54;94153.16;;;11.36;69.70
21742;BME280;11033;47.490;11.116;2022-10-18T01:18:45;94158.28;;;11.22;70.50
21742;BME280;11033;47.490;11.116;2022-10-18T01:21:34;94147.59;;;11.15;71.68
21742;BME280;11033;47.490;11.116;2022-10-18T01:32:28;94146.94;;;11.05;71.38
21742;BME280;11033;47.490;11.116;2022-10-18T01:34:59;94133.44;;;11.16;70.07
21742;BME280;11033;47.490;11.116;2022-10-18T01:37:26;94145.28;;;11.04;72.09
21742;BME280;11033;47.490;11.116;2022-10-18T01:39:54;94131.13;;;11.05;72.65
21742;BME280;11033;47.490;11.116;2022-10-18T01:42:21;94135.72;;;11.19;70.51
21742;BME280;11033;47.490;11.116;2022-10-18T01:44:48;94136.53;;;11.20;70.27
21742;BME280;11033;47.490;11.116;2022-10-18T01:47:15;94132.59;;;11.16;70.66
21742;BME280;11033;47.490;11.116;2022-10-18T01:49:41;94126.50;;;11.15;70.78
21742;BME280;11033;47.490;11.116;2022-10-18T01:52:12;94134.25;;;11.17;70.02
21742;BME280;11033;47.490;11.116;2022-10-18T01:54:40;94140.00;;;11.20;70.03
21742;BME280;11033;47.490;11.116;2022-10-18T02:07:35;94136.72;;;11.18;69.70
21742;BME280;11033;47.490;11.116;2022-10-18T02:10:17;94141.00;;;11.19;70.05
21742;BME280;11033;47.490;11.116;2022-10-18T02:12:45;94123.84;;;11.23;70.58
21742;BME280;11033;47.490;11.116;2022-10-18T02:15:16;94123.19;;;11.21;71.00
21742;BME280;11033;47.490;11.116;2022-10-18T02:17:44;94130.47;;;11.11;71.32
21742;BME280;11033;47.490;11.116;2022-10-18T02:20:12;94133.09;;;11.03;71.75
21742;BME280;11033;47.490;11.116;2022-10-18T02:22:41;94139.72;;;11.07;71.64
21742;BME280;11033;47.490;11.116;2022-10-18T02:25:15;94137.38;;;11.12;69.61
21742;BME280;11033;47.490;11.116;2022-10-18T02:27:42;94143.66;;;11.11;70.52
21742;BME280;11033;47.490;11.116;2022-10-18T02:30:08;94146.28;;;10.95;72.68
21742;BME280;11033;47.490;11.116;2022-10-18T02:32:40;94136.72;;;11.02;72.49
21742;BME280;11033;47.490;11.116;2022-10-18T02:35:26;94133.63;;;11.06;69.35
21742;BME280;11033;47.490;11.116;2022-10-18T02:37:56;94135.75;;;10.95;71.28
21742;BME280;11033;47.490;11.116;2022-10-18T02:40:23;94133.59;;;10.98;70.97
21742;BME280;11033;47.490;11.116;2022-10-18T02:42:52;94129.81;;;11.01;70.50
21742;BME280;11033;47.490;11.116;2022-10-18T02:45:18;94136.41;;;10.97;70.86
21742;BME280;11033;47.490;11.116;2022-10-18T02:47:44;94129.50;;;10.88;70.74
21742;BME280;11033;47.490;11.116;2022-10-18T02:50:09;94132.47;;;10.93;70.20
21742;BME280;11033;47.490;11.116;2022-10-18T02:52:35;94144.81;;;11.00;70.08
21742;BME280;11033;47.490;11.116;2022-10-18T02:55:00;94143.34;;;10.90;72.51
21742;BME280;11033;47.490;11.116;2022-10-18T02:57:26;94138.56;;;10.93;70.83
21742;BME280;11033;47.490;11.116;2022-10-18T02:59:51;94136.38;;;11.05;70.63
21742;BME280;11033;47.490;11.116;2022-10-18T03:02:16;94134.75;;;11.04;71.49
21742;BME280;11033;47.490;11.116;2022-10-18T03:04:42;94132.13;;;11.12;69.64
21742;BME280;11033;47.490;11.116;2022-10-18T03:07:07;94130.16;;;11.06;71.34
21742;BME280;11033;47.490;11.116;2022-10-18T03:09:32;94134.59;;;11.05;71.00
21742;BME280;11033;47.490;11.116;2022-10-18T03:11:58;94137.53;;;11.02;72.20
21742;BME280;11033;47.490;11.116;2022-10-18T03:14:23;94141.69;;;10.97;72.96
21742;BME280;11033;47.490;11.116;2022-10-18T03:16:48;94143.16;;;10.99;71.90
21742;BME280;11033;47.490;11.116;2022-10-18T03:19:14;94141.66;;;11.05;71.70
21742;BME280;11033;47.490;11.116;2022-10-18T03:21:39;94139.84;;;11.14;70.75
21742;BME280;11033;47.490;11.116;2022-10-18T03:24:05;94135.25;;;11.07;71.57
21742;BME280;11033;47.490;11.116;2022-10-18T03:26:30;94136.09;;;11.08;71.85
21742;BME280;11033;47.490;11.116;2022-10-18T03:28:56;94137.38;;;11.04;71.64
21742;BME280;11033;47.490;11.116;2022-10-18T03:31:21;94145.81;;;11.07;71.55
21742;BME280;11033;47.490;11.116;2022-10-18T03:33:47;94143.16;;;11.07;71.66
21742;BME280;11033;47.490;11.116;2022-10-18T03:36:12;94146.28;;;11.11;70.96
21742;BME280;11033;47.490;11.116;2022-10-18T03:38:37;94154.84;;;11.13;70.69
21742;BME280;11033;47.490;11.116;2022-10-18T03:41:03;94165.91;;;11.08;71.14
21742;BME280;11033;47.490;11.116;2022-10-18T03:43:28;94174.16;;;11.05;71.83
21742;BME280;11033;47.490;11.116;2022-10-18T03:45:54;94177.75;;;11.04;71.32
21742;BME280;11033;47.490;11.116;2022-10-18T03:48:19;94169.03;;;10.96;73.11
21742;BME280;11033;47.490;11.116;2022-10-18T03:50:45;94174.31;;;10.96;71.54
21742;BME280;11033;47.490;11.116;2022-10-18T03:53:10;94173.81;;;11.08;70.10
21742;BME280;11033;47.490;11.116;2022-10-18T03:55:36;94164.75;;;10.95;71.54
21742;BME280;11033;47.490;11.116;2022-10-18T03:58:01;94157.50;;;10.97;70.71
21742;BME280;11033;47.490;11.116;2022-10-18T04:00:27;94167.41;;;10.87;71.83
21742;BME280;11033;47.490;11.116;2022-10-18T04:02:52;94171.19;;;10.92;70.05
21742;BME280;11033;47.490;11.116;2022-10-18T04:05:17;94182.22;;;10.88;70.50
21742;BME280;11033;47.490;11.116;2022-10-18T04:07:43;94176.63;;;10.91;71.39
21742;BME280;11033;47.490;11.116;2022-10-18T04:10:08;94187.16;;;10.91;71.49
21742;BME280;11033;47.490;11.116;2022-10-18T04:12:33;94190.63;;;10.91;70.95
21742;BME280;11033;47.490;11.116;2022-10-18T04:14:59;94199.34;;;10.84;72.12
21742;BME280;11033;47.490;11.116;2022-10-18T04:17:24;94191.78;;;10.80;71.04
21742;BME280;11033;47.490;11.116;2022-10-18T04:19:49;94195.72;;;10.68;72.14
21742;BME280;11033;47.490;11.116;2022-10-18T04:22:15;94203.47;;;10.78;71.06
21742;BME280;11033;47.490;11.116;2022-10-18T04:24:40;94191.94;;;10.87;70.22
21742;BME280;11033;47.490;11.116;2022-10-18T04:27:06;94199.69;;;10.72;72.11
21742;BME280;11033;47.490;11.116;2022-10-18T04:29:32;94189.81;;;10.74;71.29
21742;BME280;11033;47.490;11.116;2022-10-18T04:31:57;94189.63;;;10.68;72.19
21742;BME280;11033;47.490;11.116;2022-10-18T04:34:23;94187.81;;;10.68;73.70
21742;BME280;11033;47.490;11.116;2022-10-18T04:36:48;94190.13;;;10.63;72.97
21742;BME280;11033;47.490;11.116;2022-10-18T04:39:14;94180.59;;;10.70;71.34
21742;BME280;11033;47.490;11.116;2022-10-18T04:41:39;94184.88;;;10.55;74.27
21742;BME280;11033;47.490;11.116;2022-10-18T04:44:04;94189.81;;;10.50;74.40
21742;BME280;11033;47.490;11.116;2022-10-18T04:46:30;94186.50;;;10.64;72.65
21742;BME280;11033;47.490;11.116;2022-10-18T04:48:55;94187.50;;;10.63;72.69
21742;BME280;11033;47.490;11.116;2022-10-18T04:51:20;94194.56;;;10.63;72.50
21742;BME280;11033;47.490;11.116;2022-10-18T04:53:46;94182.56;;;10.68;72.80
21742;BME280;11033;47.490;11.116;2022-10-18T04:56:11;94181.41;;;10.71;72.32
21742;BME280;11033;47.490;11.116;2022-10-18T04:58:36;94194.09;;;10.75;71.69
21742;BME280;11033;47.490;11.116;2022-10-18T05:01:05;94193.75;;;10.78;71.26
21742;BME280;11033;47.490;11.116;2022-10-18T05:03:31;94190.63;;;10.75;72.30
21742;BME280;11033;47.490;11.116;2022-10-18T05:05:56;94197.38;;;10.69;74.15
21742;BME280;11033;47.490;11.116;2022-10-18T05:08:22;94185.69;;;10.80;72.11
21742;BME280;11033;47.490;11.116;2022-10-18T05:10:47;94187.31;;;10.81;72.88
21742;BME280;11033;47.490;11.116;2022-10-18T05:13:12;94183.53;;;10.84;71.68
21742;BME280;11033;47.490;11.116;2022-10-18T05:15:38;94191.44;;;10.84;72.24
21742;BME280;11033;47.490;11.116;2022-10-18T05:18:03;94191.44;;;10.84;73.71
21742;BME280;11033;47.490;11.116;2022-10-18T05:20:28;94175.97;;;10.80;73.49
21742;BME280;11033;47.490;11.116;2022-10-18T05:22:53;94175.97;;;10.80;72.61
21742;BME280;11033;47.490;11.116;2022-10-18T05:25:19;94173.97;;;10.99;71.47
21742;BME280;11033;47.490;11.116;2022-10-18T05:27:44;94183.88;;;10.80;73.19
21742;BME280;11033;47.490;11.116;2022-10-18T05:30:09;94186.16;;;10.92;73.07
21742;BME280;11033;47.490;11.116;2022-10-18T05:32:35;94178.25;;;11.00;72.55
21742;BME280;11033;47.490;11.116;2022-10-18T05:35:00;94175.13;;;11.13;70.22
21742;BME280;11033;47.490;11.116;2022-10-18T05:37:25;94175.94;;;11.13;72.05
21742;BME280;11033;47.490;11.116;2022-10-18T05:39:51;94183.03;;;11.13;70.35
21742;BME280;11033;47.490;11.116;2022-10-18T05:42:17;94189.63;;;11.17;71.09
21742;BME280;11033;47.490;11.116;2022-10-18T05:44:42;94194.91;;;11.08;72.64
21742;BME280;11033;47.490;11.116;2022-10-18T05:47:07;94193.56;;;11.21;71.00
21742;BME280;11033;47.490;11.116;2022-10-18T05:49:32;94202.78;;;11.33;71.00
21742;BME280;11033;47.490;11.116;2022-10-18T05:51:58;94209.22;;;11.30;70.37
21742;BME280;11033;47.490;11.116;2022-10-18T05:54:23;94204.28;;;11.27;70.20
21742;BME280;11033;47.490;11.116;2022-10-18T05:56:48;94206.22;;;11.41;71.21
21742;BME280;11033;47.490;11.116;2022-10-18T05:59:14;94203.25;;;11.36;72.59
21742;BME280;11033;47.490;11.116;2022-10-18T06:01:40;94196.50;;;11.42;70.96
21742;BME280;11033;47.490;11.116;2022-10-18T06:04:07;94202.88;;;11.56;69.84
21742;BME280;11033;47.490;11.116;2022-10-18T06:06:34;94209.47;;;11.60;70.06
21742;BME280;11033;47.490;11.116;2022-10-18T06:08:59;94202.19;;;11.62;69.97
21742;BME280;11033;47.490;11.116;2022-10-18T06:11:27;94191.13;;;11.66;69.67
21742;BME280;11033;47.490;11.116;2022-10-18T06:13:53;94184.03;;;11.67;69.88
21742;BME280;11033;47.490;11.116;2022-10-18T06:16:20;94195.94;;;11.71;71.45
21742;BME280;11033;47.490;11.116;2022-10-18T06:18:51;94190.97;;;11.76;70.27
21742;BME280;11033;47.490;11.116;2022-10-18T06:21:17;94199.56;;;11.78;70.74
21742;BME280;11033;47.490;11.116;2022-10-18T06:23:42;94200.53;;;11.85;70.24
21742;BME280;11033;47.490;11.116;2022-10-18T06:26:10;94193.25;;;11.87;71.19
21742;BME280;11033;47.490;11.116;2022-10-18T06:28:36;94196.84;;;11.94;70.25
21742;BME280;11033;47.490;11.116;2022-10-18T06:31:03;94201.75;;;12.05;69.27
21742;BME280;11033;47.490;11.116;2022-10-18T06:33:29;94196.75;;;12.11;69.35
21742;BME280;11033;47.490;11.116;2022-10-18T06:36:04;94188.16;;;12.17;68.01
21742;BME280;11033;47.490;11.116;2022-10-18T06:38:30;94199.88;;;12.14;70.14
21742;BME280;11033;47.490;11.116;2022-10-18T06:40:56;94200.41;;;12.10;70.47
21742;BME280;11033;47.490;11.116;2022-10-18T06:43:22;94204.16;;;12.15;69.87
21742;BME280;11033;47.490;11.116;2022-10-18T06:45:49;94198.66;;;12.25;70.20
21742;BME280;11033;47.490;11.116;2022-10-18T06:48:15;94203.94;;;12.25;70.89
21742;BME280;11033;47.490;11.116;2022-10-18T06:50:40;94205.06;;;12.38;69.26
21742;BME280;11033;47.490;11.116;2022-10-18T06:53:06;94208.69;;;12.37;71.00
21742;BME280;11033;47.490;11.116;2022-10-18T06:55:33;94217.75;;;12.43;69.36
21742;BME280;11033;47.490;11.116;2022-10-18T06:57:59;94209.06;;;12.57;68.76
21742;BME280;11033;47.490;11.116;2022-10-18T07:00:24;94213.53;;;12.57;69.23
21742;BME280;11033;47.490;11.116;2022-10-18T07:02:50;94211.66;;;12.65;67.95
21742;BME280;11033;47.490;11.116;2022-10-18T07:05:15;94213.59;;;12.72;68.07
21742;BME280;11033;47.490;11.116;2022-10-18T07:07:40;94206.94;;;12.76;66.98
21742;BME280;11033;47.490;11.116;2022-10-18T07:10:06;94208.88;;;12.82;66.92
21742;BME280;11033;47.490;11.116;2022-10-18T07:12:32;94206.53;;;12.87;67.80
21742;BME280;11033;47.490;11.116;2022-10-18T07:14:58;94208.00;;;12.89;67.73
21742;BME280;11033;47.490;11.116;2022-10-18T07:17:23;94204.59;;;13.04;67.23
21742;BME280;11033;47.490;11.116;2022-10-18T07:19:48;94214.81;;;13.07;69.73
21742;BME280;11033;47.490;11.116;2022-10-18T07:22:14;94209.59;;;13.21;67.59
21742;BME280;11033;47.490;11.116;2022-10-18T07:24:39;94207.88;;;13.28;67.04
21742;BME280;11033;47.490;11.116;2022-10-18T07:27:04;94215.19;;;13.41;67.28
21742;BME280;11033;47.490;11.116;2022-10-18T07:29:30;94213.00;;;13.45;68.46
21742;BME280;11033;47.490;11.116;2022-10-18T07:31:56;94208.63;;;13.52;66.83
21742;BME280;11033;47.490;11.116;2022-10-18T07:34:21;94202.25;;;13.61;67.12
21742;BME280;11033;47.490;11.116;2022-10-18T07:36:46;94206.28;;;13.72;67.73
21742;BME280;11033;47.490;11.116;2022-10-18T07:39:12;94203.38;;;13.81;67.41
21742;BME280;11033;47.490;11.116;2022-10-18T07:41:37;94211.03;;;13.91;66.82
21742;BME280;11033;47.490;11.116;2022-10-18T07:44:03;94209.38;;;14.05;65.58
21742;BME280;11033;47.490;11.116;2022-10-18T07:46:29;94212.56;;;14.15;65.80
21742;BME280;11033;47.490;11.116;2022-10-18T07:48:54;94213.09;;;14.25;65.14
21742;BME280;11033;47.490;11.116;2022-10-18T07:51:20;94216.47;;;14.34;66.02
21742;BME280;11033;47.490;11.116;2022-10-18T07:53:46;94210.34;;;14.48;66.23
21742;BME280;11033;47.490;11.116;2022-10-18T07:56:14;94220.66;;;14.57;64.57
21742;BME280;11033;47.490;11.116;2022-10-18T07:58:44;94222.44;;;14.72;65.62
21742;BME280;11033;47.490;11.116;2022-10-18T08:01:10;94215.59;;;14.84;65.55
21742;BME280;11033;47.490;11.116;2022-10-18T08:03:36;94211.09;;;14.99;65.26
21742;BME280;11033;47.490;11.116;2022-10-18T08:06:03;94214.09;;;15.17;65.57
21742;BME280;11033;47.490;11.116;2022-10-18T08:08:29;94202.19;;;15.35;65.44
21742;BME280;11033;47.490;11.116;2022-10-18T08:10:55;94206.81;;;15.54;63.49
21742;BME280;11033;47.490;11.116;2022-10-18T08:13:25;94212.31;;;15.74;63.01
21742;BME280;11033;47.490;11.116;2022-10-18T08:15:58;94200.16;;;15.93;62.64
21742;BME280;11033;47.490;11.116;2022-10-18T08:18:23;94198.59;;;16.05;62.01
21742;BME280;11033;47.490;11.116;2022-10-18T08:20:49;94200.69;;;16.16;62.32
21742;BME280;11033;47.490;11.116;2022-10-18T08:23:14;94195.84;;;16.26;61.44
21742;BME280;11033;47.490;11.116;2022-10-18T08:25:39;94211.63;;;16.34;61.76
21742;BME280;11033;47.490;11.116;2022-10-18T08:28:05;94209.88;;;16.55;60.82
21742;BME280;11033;47.490;11.116;2022-10-18T08:30:31;94203.00;;;16.80;60.89
21742;BME280;11033;47.490;11.116;2022-10-18T08:32:56;94204.28;;;16.97;59.46
21742;BME280;11033;47.490;11.116;2022-10-18T08:35:21;94202.66;;;17.03;59.06
21742;BME280;11033;47.490;11.116;2022-10-18T08:37:47;94202.25;;;17.13;58.94
21742;BME280;11033;47.490;11.116;2022-10-18T08:40:13;94193.25;;;17.40;59.10
21742;BME280;11033;47.490;11.116;2022-10-18T08:45:12;94199.81;;;17.57;59.09
21742;BME280;11033;47.490;11.116;2022-10-18T08:47:41;94194.09;;;17.73;58.26
21742;BME280;11033;47.490;11.116;2022-10-18T08:50:17;94193.22;;;17.93;58.84
21742;BME280;11033;47.490;11.116;2022-10-18T08:55:36;94188.44;;;18.21;56.28
21742;BME280;11033;47.490;11.116;2022-10-18T08:58:18;94191.00;;;18.48;56.83
21742;BME280;11033;47.490;11.116;2022-10-18T09:04:00;94181.06;;;18.68;57.63
21742;BME280;11033;47.490;11.116;2022-10-18T09:14:55;94175.19;;;19.54;55.52
21742;BME280;11033;47.490;11.116;2022-10-18T09:17:30;94168.09;;;19.66;54.31
21742;BME280;11033;47.490;11.116;2022-10-18T09:20:26;94166.09;;;19.80;53.27
21742;BME280;11033;47.490;11.116;2022-10-18T09:22:58;94163.13;;;19.70;51.69
21742;BME280;11033;47.490;11.116;2022-10-18T09:25:43;94169.09;;;20.08;53.85
21742;BME280;11033;47.490;11.116;2022-10-18T09:31:09;94158.75;;;20.12;51.93
21742;BME280;11033;47.490;11.116;2022-10-18T09:36:09;94157.44;;;20.21;49.56
21742;BME280;11033;47.490;11.116;2022-10-18T09:38:43;94160.16;;;20.69;49.53
21742;BME280;11033;47.490;11.116;2022-10-18T09:41:14;94163.06;;;20.98;48.46
21742;BME280;11033;47.490;11.116;2022-10-18T09:43:52;94157.06;;;21.56;50.50
21742;BME280;11033;47.490;11.116;2022-10-18T09:46:22;94148.41;;;22.35;47.31
21742;BME280;11033;47.490;11.116;2022-10-18T09:48:54;94138.16;;;23.63;44.79
21742;BME280;11033;47.490;11.116;2022-10-18T09:51:26;94138.69;;;24.37;45.19
21742;BME280;11033;47.490;11.116;2022-10-18T09:56:47;94135.38;;;24.74;41.89
21742;BME280;11033;47.490;11.116;2022-10-18T10:01:48;94131.16;;;25.05;42.37
21742;BME280;11033;47.490;11.116;2022-10-18T10:04:14;94125.00;;;24.87;41.72
21742;BME280;11033;47.490;11.116;2022-10-18T10:06:51;94135.75;;;24.60;43.69
21742;BME280;11033;47.490;11.116;2022-10-18T10:09:23;94130.66;;;24.03;41.55
21742;BME280;11033;47.490;11.116;2022-10-18T10:11:50;94137.13;;;24.41;41.44
21742;BME280;11033;47.490;11.116;2022-10-18T10:14:20;94124.44;;;24.20;41.22
21742;BME280;11033;47.490;11.116;2022-10-18T10:17:05;94125.94;;;24.11;40.86
21742;BME280;11033;47.490;11.116;2022-10-18T10:19:59;94135.03;;;23.71;44.20
21742;BME280;11033;47.490;11.116;2022-10-18T10:22:35;94135.16;;;24.15;43.33
21742;BME280;11033;47.490;11.116;2022-10-18T10:25:01;94136.47;;;24.12;43.99
21742;BME280;11033;47.490;11.116;2022-10-18T10:27:43;94137.72;;;23.88;43.07
21742;BME280;11033;47.490;11.116;2022-10-18T10:32:50;94136.91;;;23.87;42.55
21742;BME280;11033;47.490;11.116;2022-10-18T10:35:26;94137.53;;;24.11;42.62
21742;BME280;11033;47.490;11.116;2022-10-18T10:37:53;94130.66;;;24.20;39.83
21742;BME280;11033;47.490;11.116;2022-10-18T10:40:25;94133.75;;;24.73;42.10
21742;BME280;11033;47.490;11.116;2022-10-18T10:43:57;94131.28;;;25.20;41.04
21742;BME280;11033;47.490;11.116;2022-10-18T10:46:16;94117.41;;;25.06;37.41
21742;BME280;11033;47.490;11.116;2022-10-18T10:48:56;94123.63;;;24.85;37.41
21742;BME280;11033;47.490;11.116;2022-10-18T10:51:37;94121.34;;;25.89;41.55
21742;BME280;11033;47.490;11.116;2022-10-18T10:54:05;94116.47;;;25.86;39.62
21742;BME280;11033;47.490;11.116;2022-10-18T10:59:17;94104.56;;;25.18;36.17
21742;BME280;11033;47.490;11.116;2022-10-18T11:01:43;94107.28;;;25.82;38.59
21742;BME280;11033;47.490;11.116;2022-10-18T11:04:27;94104.97;;;26.48;39.64
21742;BME280;11033;47.490;11.116;2022-10-18T11:09:44;94089.94;;;26.83;38.50
21742;BME280;11033;47.490;11.116;2022-10-18T11:12:29;94095.63;;;26.24;36.43
21742;BME280;11033;47.490;11.116;2022-10-18T11:20:55;94082.78;;;26.46;38.03
21742;BME280;11033;47.490;11.116;2022-10-18T11:23:28;94075.13;;;27.06;38.07
21742;BME280;11033;47.490;11.116;2022-10-18T11:36:24;94063.03;;;28.64;33.02
21742;BME280;11033;47.490;11.116;2022-10-18T11:39:19;94054.53;;;28.76;34.55
21742;BME280;11033;47.490;11.116;2022-10-18T11:50:26;94049.34;;;33.05;32.34
21742;BME280;11033;47.490;11.116;2022-10-18T11:53:42;94046.69;;;33.50;30.40
21742;BME280;11033;47.490;11.116;2022-10-18T11:56:26;94038.81;;;35.38;30.43
21742;BME280;11033;47.490;11.116;2022-10-18T11:59:34;94040.53;;;35.08;29.39
21742;BME280;11033;47.490;11.116;2022-10-18T12:05:05;94040.06;;;34.18;29.07
21742;BME280;11033;47.490;11.116;2022-10-18T12:07:42;94027.13;;;36.86;27.31
21742;BME280;11033;47.490;11.116;2022-10-18T12:10:16;94016.72;;;37.21;24.27
21742;BME280;11033;47.490;11.116;2022-10-18T12:12:51;94026.84;;;37.50;27.17
21742;BME280;11033;47.490;11.116;2022-10-18T12:15:19;94027.28;;;38.88;24.50
21742;BME280;11033;47.490;11.116;2022-10-18T12:17:53;94022.59;;;39.93;26.52
21742;BME280;11033;47.490;11.116;2022-10-18T12:20:25;94014.16;;;40.02;24.12
21742;BME280;11033;47.490;11.116;2022-10-18T12:22:59;94012.53;;;36.94;26.45
21742;BME280;11033;47.490;11.116;2022-10-18T12:25:27;94021.50;;;38.32;23.28
21742;BME280;11033;47.490;11.116;2022-10-18T12:31:01;94020.28;;;39.95;23.62
21742;BME280;11033;47.490;11.116;2022-10-18T12:33:35;94015.44;;;37.19;24.74
21742;BME280;11033;47.490;11.116;2022-10-18T12:36:33;94013.75;;;39.59;24.09
21742;BME280;11033;47.490;11.116;2022-10-18T12:39:01;94011.53;;;40.68;24.17
21742;BME280;11033;47.490;11.116;2022-10-18T12:41:33;94002.28;;;37.99;25.05
21742;BME280;11033;47.490;11.116;2022-10-18T12:44:17;93996.75;;;38.44;26.83
21742;BME280;11033;47.490;11.116;2022-10-18T12:47:22;93987.53;;;36.58;27.25
21742;BME280;11033;47.490;11.116;2022-10-18T12:53:02;93983.09;;;34.77;27.34
21742;BME280;11033;47.490;11.116;2022-10-18T12:55:35;93984.28;;;35.45;27.60
21742;BME280;11033;47.490;11.116;2022-10-18T12:58:04;93980.84;;;35.91;27.10
21742;BME280;11033;47.490;11.116;2022-10-18T13:14:04;93970.16;;;39.25;23.69
21742;BME280;11033;47.490;11.116;2022-10-18T13:16:40;93986.47;;;39.70;23.58
21742;BME280;11033;47.490;11.116;2022-10-18T13:19:14;93995.44;;;39.27;24.06
21742;BME280;11033;47.490;11.116;2022-10-18T13:24:38;93991.72;;;39.07;23.48
21742;BME280;11033;47.490;11.116;2022-10-18T13:27:16;93989.09;;;41.40;22.30
21742;BME280;11033;47.490;11.116;2022-10-18T13:32:23;93992.38;;;39.56;22.14
21742;BME280;11033;47.490;11.116;2022-10-18T13:34:52;93993.94;;;42.24;22.91
21742;BME280;11033;47.490;11.116;2022-10-18T13:37:21;93996.72;;;41.82;21.53
21742;BME280;11033;47.490;11.116;2022-10-18T13:39:48;94003.03;;;41.43;22.45
21742;BME280;11033;47.490;11.116;2022-10-18T13:44:43;94008.25;;;40.78;23.26
21742;BME280;11033;47.490;11.116;2022-10-18T13:47:31;93990.91;;;38.58;25.06
21742;BME280;11033;47.490;11.116;2022-10-18T14:03:18;93973.41;;;31.89;31.25
21742;BME280;11033;47.490;11.116;2022-10-18T14:11:10;93984.97;;;29.63;34.70
21742;BME280;11033;47.490;11.116;2022-10-18T14:13:58;93987.88;;;28.65;36.24
21742;BME280;11033;47.490;11.116;2022-10-18T14:16:33;93989.94;;;28.88;35.88
21742;BME280;11033;47.490;11.116;2022-10-18T14:19:16;93990.72;;;27.50;38.32
21742;BME280;11033;47.490;11.116;2022-10-18T14:21:50;93990.19;;;27.37;37.95
21742;BME280;11033;47.490;11.116;2022-10-18T14:24:22;93989.28;;;26.56;39.86
21742;BME280;11033;47.490;11.116;2022-10-18T14:27:18;93993.50;;;26.21;39.68
21742;BME280;11033;47.490;11.116;2022-10-18T14:29:45;94000.66;;;25.11;41.93
21742;BME280;11033;47.490;11.116;2022-10-18T14:34:48;94003.78;;;25.29;42.40
21742;BME280;11033;47.490;11.116;2022-10-18T14:37:20;94004.16;;;25.06;42.93
21742;BME280;11033;47.490;11.116;2022-10-18T14:39:50;93999.72;;;25.27;41.48
21742;BME280;11033;47.490;11.116;2022-10-18T14:42:23;93993.00;;;25.35;41.24
21742;BME280;11033;47.490;11.116;2022-10-18T14:44:49;93990.81;;;24.67;43.50
21742;BME280;11033;47.490;11.116;2022-10-18T14:47:23;93992.97;;;24.65;42.40
21742;BME280;11033;47.490;11.116;2022-10-18T14:49:50;94001.50;;;24.57;43.15
21742;BME280;11033;47.490;11.116;2022-10-18T14:52:26;93994.41;;;24.02;44.08
21742;BME280;11033;47.490;11.116;2022-10-18T14:54:55;93992.16;;;23.94;46.24
21742;BME280;11033;47.490;11.116;2022-10-18T14:57:32;93989.59;;;23.83;45.98
21742;BME280;11033;47.490;11.116;2022-10-18T15:00:01;93994.09;;;23.55;48.90
21742;BME280;11033;47.490;11.116;2022-10-18T15:02:31;93991.63;;;23.54;47.33
21742;BME280;11033;47.490;11.116;2022-10-18T15:05:04;93992.50;;;23.21;49.52
21742;BME280;11033;47.490;11.116;2022-10-18T15:07:30;93998.19;;;23.24;48.76
21742;BME280;11033;47.490;11.116;2022-10-18T15:09:57;93995.03;;;22.94;50.50
21742;BME280;11033;47.490;11.116;2022-10-18T15:12:24;93987.31;;;22.81;49.82
21742;BME280;11033;47.490;11.116;2022-10-18T15:14:52;93992.75;;;22.86;49.26
21742;BME280;11033;47.490;11.116;2022-10-18T15:17:24;93992.47;;;22.70;50.18
21742;BME280;11033;47.490;11.116;2022-10-18T15:20:26;94002.53;;;22.46;49.74
21742;BME280;11033;47.490;11.116;2022-10-18T15:22:53;94002.81;;;22.33;52.55